Time;durP1;ratioP1;P1;durP2;ratioP2;P2;SDS_P1;SDS_P2;PMS_P1;PMS_P2;Temp;Humidity;BMP_temperature;BMP_pressure;BME280_temperature;BME280_humidity;BME280_pressure;Samples;Min_cycle;Max_cycle;Signal;HPM_P1;HPM_P2
2021/12/11 00:00:40;;;;;;;6.82;4.03;;;;;;;5.00;73.13;97751.50;5123053;29;20054;-69
2021/12/11 00:03:37;;;;;;;13.57;4.22;;;;;;;5.11;72.65;97748.75;5122853;28;20099;-69
2021/12/11 00:06:36;;;;;;;13.35;5.60;;;;;;;4.27;74.38;97751.84;5122674;29;20058;-68
2021/12/11 00:09:30;;;;;;;4.78;3.03;;;;;;;4.78;73.04;97763.13;5105550;29;20062;-69
2021/12/11 00:12:28;;;;;;;9.50;3.58;;;;;;;4.89;71.98;97773.47;5100320;29;20119;-69
2021/12/11 00:15:27;;;;;;;7.85;3.28;;;;;;;3.61;76.05;97770.66;5102994;29;20051;-68
2021/12/11 00:18:23;;;;;;;5.00;2.55;;;;;;;4.06;74.50;97780.78;5102717;29;20074;-68
2021/12/11 00:21:16;;;;;;;5.80;2.20;;;;;;;4.20;74.72;97783.03;5102865;29;20541;-69
2021/12/11 00:24:14;;;;;;;4.20;2.05;;;;;;;4.47;73.65;97790.31;5084513;29;20135;-69
2021/12/11 00:27:11;;;;;;;4.97;2.20;;;;;;;4.84;72.32;97794.91;5109943;29;20051;-68
2021/12/11 00:30:04;;;;;;;5.10;2.13;;;;;;;4.30;73.67;97793.56;5106775;29;20473;-68
2021/12/11 00:33:06;;;;;;;2.53;2.22;;;;;;;4.00;74.22;97776.06;5115570;28;20063;-68
2021/12/11 00:35:56;;;;;;;7.03;2.72;;;;;;;4.31;74.45;97805.75;5121471;28;20074;-68
2021/12/11 00:38:50;;;;;;;4.20;2.40;;;;;;;4.42;73.62;97804.78;5082984;29;20115;-68
2021/12/11 00:41:49;;;;;;;5.15;2.75;;;;;;;4.34;73.71;97813.34;5082767;29;20067;-68
2021/12/11 00:44:48;;;;;;;4.65;2.90;;;;;;;3.56;75.79;97830.50;5096085;29;20529;-69
2021/12/11 00:47:44;;;;;;;4.20;3.05;;;;;;;4.22;74.38;97824.91;5102179;29;20533;-69
2021/12/11 00:50:48;;;;;;;6.55;3.08;;;;;;;4.82;71.95;97825.72;5103131;29;20099;-68
2021/12/11 00:53:47;;;;;;;6.07;3.08;;;;;;;3.99;74.39;97832.94;5102344;29;20080;-69
2021/12/11 00:56:39;;;;;;;10.25;3.08;;;;;;;3.84;75.28;97847.38;5116026;29;20042;-68
2021/12/11 00:59:30;;;;;;;5.63;3.42;;;;;;;4.41;73.49;97843.34;5108065;29;20050;-67
2021/12/11 01:02:19;;;;;;;7.45;3.75;;;;;;;4.74;71.97;97853.66;5112543;28;20058;-67
2021/12/11 01:05:10;;;;;;;10.85;3.92;;;;;;;4.80;71.37;97860.97;5112370;29;20094;-68
2021/12/11 01:08:00;;;;;;;8.05;3.55;;;;;;;4.18;73.97;97874.19;5102030;29;20481;-69
2021/12/11 01:10:58;;;;;;;5.38;4.15;;;;;;;4.49;71.96;97871.53;5101133;29;20550;-68
2021/12/11 01:14:15;;;;;;;11.77;4.15;;;;;;;4.32;73.16;97870.38;5102066;29;20055;-69
2021/12/11 01:17:23;;;;;;;9.88;4.38;;;;;;;4.61;72.75;97891.47;5101675;29;20055;-68
2021/12/11 01:20:22;;;;;;;8.90;4.00;;;;;;;4.21;73.42;97894.91;5100990;29;20079;-68
2021/12/11 01:23:34;;;;;;;8.60;4.00;;;;;;;4.47;72.70;97912.84;5101907;29;20529;-69
2021/12/11 01:26:24;;;;;;;7.60;3.67;;;;;;;4.32;72.45;97906.28;5114757;28;20059;-67
2021/12/11 01:29:17;;;;;;;5.63;3.92;;;;;;;4.41;73.40;97916.81;5107945;29;20052;-69
2021/12/11 01:32:08;;;;;;;9.97;4.07;;;;;;;4.18;72.89;97928.44;5106069;29;20067;-68
2021/12/11 01:35:01;;;;;;;5.85;4.25;;;;;;;4.51;72.77;97937.03;5101562;29;20314;-66
2021/12/11 01:38:05;;;;;;;7.40;4.07;;;;;;;4.71;69.92;97941.41;5100587;29;20411;-68
2021/12/11 01:40:59;;;;;;;6.38;3.75;;;;;;;4.51;71.53;97942.28;5101046;29;20438;-67
2021/12/11 01:43:53;;;;;;;5.18;3.63;;;;;;;4.55;71.61;97959.44;5101927;29;20043;-67
2021/12/11 01:46:44;;;;;;;4.45;3.40;;;;;;;4.00;73.43;97968.34;5100557;29;20059;-68
2021/12/11 01:49:35;;;;;;;5.10;3.30;;;;;;;4.20;72.18;97971.94;5101818;29;20533;-69
2021/12/11 01:52:35;;;;;;;4.50;3.10;;;;;;;4.49;71.44;97981.78;5101390;29;20048;-69
2021/12/11 01:55:40;;;;;;;5.25;3.45;;;;;;;4.57;71.47;97986.38;5088846;29;20051;-68
2021/12/11 01:58:38;;;;;;;5.95;3.53;;;;;;;4.41;71.10;97992.94;5109265;29;20054;-69
2021/12/11 02:01:36;;;;;;;4.68;3.35;;;;;;;4.10;72.97;97994.66;5120204;29;20077;-68
2021/12/11 02:04:27;;;;;;;4.50;3.35;;;;;;;3.83;73.19;98007.44;5120406;28;20151;-69
2021/12/11 02:07:26;;;;;;;6.63;3.47;;;;;;;3.81;74.60;98011.97;5121206;29;20095;-68
2021/12/11 02:10:23;;;;;;;7.18;3.75;;;;;;;4.41;72.77;98018.34;5112876;29;20116;-67
2021/12/11 02:13:22;;;;;;;5.53;3.45;;;;;;;4.34;71.96;98025.06;5099470;29;20195;-67
2021/12/11 02:16:34;;;;;;;5.32;2.97;;;;;;;4.12;72.40;98018.97;5101137;29;20058;-66
2021/12/11 02:19:31;;;;;;;5.07;2.70;;;;;;;4.06;73.40;98026.53;5103263;29;20111;-68
2021/12/11 02:22:25;;;;;;;5.47;3.08;;;;;;;4.45;71.62;98038.97;5104694;29;20587;-68
2021/12/11 02:25:17;;;;;;;;;;;;;;;4.54;70.79;98037.38;5104257;29;20040;-68
2021/12/11 02:28:17;;;;;;;4.20;3.15;;;;;;;3.86;73.24;98049.16;5116001;28;20393;-67
2021/12/11 02:31:47;;;;;;;5.78;3.17;;;;;;;3.89;73.17;98048.91;5112796;29;20042;-68
2021/12/11 02:34:43;;;;;;;7.50;3.47;;;;;;;4.03;72.18;98048.59;5102137;29;20510;-68
2021/12/11 02:37:43;;;;;;;4.30;3.53;;;;;;;4.19;72.82;98062.13;5104334;29;20054;-69
2021/12/11 02:40:36;;;;;;;6.75;4.18;;;;;;;4.43;72.21;98071.53;5104602;29;20182;-68
2021/12/11 02:43:41;;;;;;;4.72;3.40;;;;;;;4.52;70.82;98076.03;5103758;29;20126;-69
2021/12/11 02:47:03;;;;;;;5.68;3.78;;;;;;;4.76;70.58;98088.88;5104290;29;20074;-68
2021/12/11 02:49:56;;;;;;;6.53;3.92;;;;;;;4.52;71.42;98094.41;5104502;29;20062;-68
2021/12/11 02:52:54;;;;;;;6.93;3.95;;;;;;;4.22;71.79;98095.97;5104231;29;20152;-69
2021/12/11 02:55:51;;;;;;;5.72;4.05;;;;;;;4.39;71.81;98083.25;5103630;29;20142;-67
2021/12/11 02:58:46;;;;;;;6.38;4.18;;;;;;;4.66;71.24;98093.25;5104624;29;20062;-69
2021/12/11 03:01:47;;;;;;;6.07;4.45;;;;;;;4.74;70.72;98105.75;5103670;29;20115;-68
2021/12/11 03:04:48;;;;;;;12.75;4.65;;;;;;;4.41;72.47;98116.28;5104425;29;20118;-68
2021/12/11 03:07:43;;;;;;;5.38;4.25;;;;;;;4.49;71.31;98097.28;5103469;29;20114;-68
2021/12/11 03:10:34;;;;;;;7.93;5.03;;;;;;;4.51;72.36;98108.50;5103643;29;20052;-68
2021/12/11 03:13:27;;;;;;;11.25;5.53;;;;;;;4.29;72.05;98109.44;5103302;29;20126;-67
2021/12/11 03:16:25;;;;;;;7.75;5.35;;;;;;;4.57;71.54;98136.88;5103593;29;20122;-68
2021/12/11 03:19:18;;;;;;;7.00;5.53;;;;;;;4.38;72.96;98134.09;5103838;29;20138;-68
2021/12/11 03:22:13;;;;;;;8.38;6.10;;;;;;;4.55;71.91;98154.53;5103690;29;20070;-67
2021/12/11 03:25:07;;;;;;;11.18;6.22;;;;;;;4.58;72.34;98149.03;5102742;29;20130;-69
2021/12/11 03:27:58;;;;;;;10.48;6.90;;;;;;;4.24;73.43;98151.78;5111894;29;20404;-67
2021/12/11 03:30:57;;;;;;;9.20;6.72;;;;;;;4.60;71.94;98162.00;5111745;29;20424;-68
2021/12/11 03:33:52;;;;;;;9.32;7.10;;;;;;;4.79;71.76;98158.72;5082934;29;20055;-68
2021/12/11 03:36:44;;;;;;;12.23;7.28;;;;;;;4.30;72.50;98163.56;5083789;29;20071;-68
2021/12/11 03:39:42;;;;;;;10.10;7.05;;;;;;;4.64;72.24;98185.28;5084173;29;20063;-68
2021/12/11 03:42:36;;;;;;;13.13;9.05;;;;;;;4.52;71.72;98186.28;5101134;29;20614;-68
2021/12/11 03:45:30;;;;;;;;;;;;;;;4.62;71.55;98202.94;5103880;29;20040;-68
2021/12/11 03:48:30;;;;;;;9.25;6.43;;;;;;;4.40;73.02;98196.00;5104178;29;19934;-68
2021/12/11 03:51:25;;;;;;;15.40;9.63;;;;;;;4.44;72.46;98204.47;5102347;29;20066;-69
2021/12/11 03:54:24;;;;;;;12.80;9.13;;;;;;;4.54;73.30;98220.31;5102300;29;20050;-69
2021/12/11 03:57:17;;;;;;;16.15;10.50;;;;;;;4.56;71.92;98221.81;5102486;29;20071;-68
2021/12/11 04:00:11;;;;;;;15.15;10.63;;;;;;;4.69;71.07;98219.03;5103347;29;20086;-68
2021/12/11 04:03:07;;;;;;;15.70;10.27;;;;;;;4.60;71.19;98231.13;5102815;29;20521;-68
2021/12/11 04:06:00;;;;;;;14.60;10.88;;;;;;;4.39;72.12;98227.63;5102735;29;20118;-68
2021/12/11 04:08:52;;;;;;;16.90;10.65;;;;;;;4.00;73.54;98246.41;5103069;29;20058;-69
2021/12/11 04:11:43;;;;;;;15.20;9.82;;;;;;;4.24;73.09;98222.66;5101481;29;20078;-67
2021/12/11 04:14:37;;;;;;;14.10;10.45;;;;;;;4.54;71.72;98265.75;5102829;29;20640;-67
2021/12/11 04:17:28;;;;;;;;;;;;;;;4.22;72.58;98268.31;5102680;29;20146;-68
2021/12/11 04:20:20;;;;;;;13.75;8.80;;;;;;;4.09;73.00;98268.47;5102991;29;19929;-67
2021/12/11 04:23:11;;;;;;;14.98;9.55;;;;;;;4.37;72.05;98272.38;5102758;29;20087;-67
2021/12/11 04:26:02;;;;;;;16.75;9.90;;;;;;;4.51;71.95;98281.75;5100279;29;20059;-67
2021/12/11 04:28:52;;;;;;;15.60;9.88;;;;;;;4.54;71.88;98292.00;5112924;29;20050;-67
2021/12/11 04:31:46;;;;;;;13.50;9.93;;;;;;;4.40;72.24;98292.25;5107877;29;20054;-67
2021/12/11 04:34:37;;;;;;;15.50;9.93;;;;;;;4.18;72.68;98298.41;5113797;29;20051;-67
2021/12/11 04:37:30;;;;;;;16.65;10.27;;;;;;;4.38;71.39;98281.06;5122036;29;20050;-68
2021/12/11 04:40:24;;;;;;;14.75;10.45;;;;;;;4.64;71.50;98308.69;5122363;29;20134;-67
2021/12/11 04:43:18;;;;;;;14.90;10.07;;;;;;;4.71;71.82;98316.91;5082632;29;20051;-67
2021/12/11 04:46:11;;;;;;;13.35;9.07;;;;;;;4.41;72.17;98320.19;5081285;29;20477;-68
2021/12/11 04:52:06;;;;;;;13.77;9.63;;;;;;;4.37;71.82;98319.63;5082686;29;20344;-67
2021/12/11 05:07:07;;;;;;;16.10;9.60;;;;;;;4.61;70.67;98358.81;5101546;29;20061;-68
2021/12/11 05:10:17;;;;;;;15.75;10.23;;;;;;;3.72;73.85;98370.13;5102134;29;20118;-66
2021/12/11 05:13:08;;;;;;;15.85;10.68;;;;;;;3.64;75.48;98373.34;5100777;29;20246;-67
2021/12/11 05:16:04;;;;;;;19.15;11.13;;;;;;;4.00;72.46;98380.16;5101334;29;20047;-68
2021/12/11 05:18:54;;;;;;;16.15;11.30;;;;;;;3.71;74.59;98395.53;5101887;29;20060;-67
2021/12/11 05:21:45;;;;;;;16.48;11.07;;;;;;;3.53;74.32;98404.75;5101967;29;20192;-67
2021/12/11 05:24:37;;;;;;;15.80;11.18;;;;;;;4.00;72.62;98403.78;5101866;29;20055;-69
2021/12/11 05:27:27;;;;;;;16.88;11.40;;;;;;;3.87;72.84;98399.59;5102038;29;20077;-70
2021/12/11 05:30:30;;;;;;;18.15;12.63;;;;;;;4.21;72.38;98417.06;5112055;29;20053;-67
2021/12/11 05:33:22;;;;;;;15.10;10.35;;;;;;;3.41;75.30;98422.22;5116065;28;20569;-66
2021/12/11 05:36:15;;;;;;;16.80;10.75;;;;;;;4.12;72.55;98415.13;5121112;29;20066;-67
2021/12/11 05:39:12;;;;;;;17.38;11.50;;;;;;;4.12;71.68;98433.50;5114696;28;20748;-66
2021/12/11 05:42:03;;;;;;;17.67;11.77;;;;;;;4.03;73.54;98444.69;5100249;29;20122;-67
2021/12/11 05:44:52;;;;;;;15.35;10.57;;;;;;;4.11;72.80;98442.34;5102070;29;20067;-68
2021/12/11 05:47:43;;;;;;;14.98;10.68;;;;;;;4.45;71.31;98458.13;5100278;29;20543;-65
2021/12/11 05:50:39;;;;;;;17.50;11.18;;;;;;;4.31;72.75;98450.47;5101730;29;20087;-67
2021/12/11 05:53:32;;;;;;;14.32;10.10;;;;;;;3.94;72.30;98450.63;5100820;29;20051;-69
2021/12/11 05:56:23;;;;;;;15.02;10.95;;;;;;;3.88;73.26;98448.50;5102240;29;20086;-67
2021/12/11 05:59:17;;;;;;;15.07;10.98;;;;;;;3.65;75.32;98490.34;5109574;29;20046;-68
2021/12/11 06:02:13;;;;;;;17.10;12.02;;;;;;;4.08;72.74;98487.16;5104728;29;20059;-65
2021/12/11 06:05:04;;;;;;;17.23;12.20;;;;;;;3.93;73.47;98501.41;5104923;29;20482;-68
2021/12/11 06:07:55;;;;;;;16.58;11.85;;;;;;;3.55;74.33;98505.09;5104340;29;20059;-70
2021/12/11 06:10:45;;;;;;;16.15;12.38;;;;;;;3.74;73.76;98509.81;5105437;29;20155;-69
2021/12/11 06:13:36;;;;;;;16.02;12.07;;;;;;;4.07;72.74;98516.97;5104452;29;20454;-68
2021/12/11 06:16:27;;;;;;;18.15;12.50;;;;;;;4.06;71.97;98517.09;5104722;29;20058;-69
2021/12/11 06:19:21;;;;;;;17.83;12.88;;;;;;;3.92;73.70;98523.38;5104939;29;20054;-66
2021/12/11 06:22:11;;;;;;;19.50;13.13;;;;;;;3.53;74.86;98539.25;5104459;29;20401;-68
2021/12/11 06:25:06;;;;;;;18.67;13.15;;;;;;;3.71;74.31;98536.28;5104778;29;20510;-69
2021/12/11 06:27:57;;;;;;;17.13;12.77;;;;;;;3.92;73.25;98533.84;5104460;29;20059;-70
2021/12/11 06:30:47;;;;;;;20.15;14.02;;;;;;;3.89;72.79;98549.81;5105217;29;20086;-66
2021/12/11 06:33:38;;;;;;;19.30;13.18;;;;;;;4.15;72.28;98546.09;5104431;29;20075;-66
2021/12/11 06:36:29;;;;;;;21.02;13.88;;;;;;;4.51;70.34;98567.91;5104419;29;20539;-68
2021/12/11 06:39:22;;;;;;;17.45;12.15;;;;;;;3.99;72.92;98569.16;5104153;29;20113;-69
2021/12/11 06:42:13;;;;;;;21.23;13.57;;;;;;;4.28;71.68;98574.91;5104596;29;20654;-69
2021/12/11 06:45:04;;;;;;;20.13;13.85;;;;;;;3.95;72.88;98584.31;5105149;29;20070;-68
2021/12/11 06:47:55;;;;;;;19.67;14.32;;;;;;;3.98;73.11;98585.88;5104339;29;20146;-66
2021/12/11 06:50:46;;;;;;;21.98;14.15;;;;;;;3.99;71.53;98571.78;5104067;29;20063;-70
2021/12/11 06:53:36;;;;;;;23.05;15.77;;;;;;;3.76;73.30;98600.53;5104545;29;20058;-69
2021/12/11 06:56:27;;;;;;;24.17;16.42;;;;;;;3.82;73.43;98607.13;5102857;29;20047;-69
2021/12/11 06:59:18;;;;;;;20.90;14.00;;;;;;;3.73;73.04;98613.84;5113261;28;20591;-67
2021/12/11 07:02:08;;;;;;;24.60;14.85;;;;;;;3.82;73.06;98622.03;5108131;29;20070;-69
2021/12/11 07:04:58;;;;;;;24.90;15.27;;;;;;;3.67;72.95;98602.97;5116721;29;20097;-67
2021/12/11 07:07:49;;;;;;;27.77;16.13;;;;;;;3.89;72.01;98607.53;5104741;29;20051;-66
2021/12/11 07:10:41;;;;;;;26.75;16.52;;;;;;;4.16;71.54;98652.72;5104377;29;20127;-66
2021/12/11 07:13:31;;;;;;;29.50;16.67;;;;;;;4.13;71.69;98658.19;5103698;29;20054;-71
2021/12/11 07:16:22;;;;;;;27.10;17.45;;;;;;;4.50;70.43;98658.13;5103693;29;20047;-68
2021/12/11 07:19:13;;;;;;;33.53;17.38;;;;;;;4.87;69.30;98671.97;5103564;29;20048;-69
2021/12/11 07:22:04;;;;;;;28.30;17.63;;;;;;;4.34;71.49;98660.19;5103856;29;20050;-66
2021/12/11 07:25:05;;;;;;;30.13;17.95;;;;;;;4.13;71.49;98689.69;5103705;29;20098;-69
2021/12/11 07:27:57;;;;;;;29.20;18.17;;;;;;;4.61;70.87;98700.19;5103390;29;20501;-69
2021/12/11 07:30:51;;;;;;;28.83;17.23;;;;;;;3.86;73.18;98702.16;5103776;29;20070;-67
2021/12/11 07:33:42;;;;;;;30.73;18.27;;;;;;;4.67;70.61;98705.00;5102358;29;20615;-68
2021/12/11 07:36:34;;;;;;;29.52;17.63;;;;;;;4.19;72.85;98689.25;5102463;29;20641;-67
2021/12/11 07:39:25;;;;;;;26.95;17.58;;;;;;;4.76;69.85;98711.31;5103763;29;20127;-68
2021/12/11 07:42:15;;;;;;;28.08;18.48;;;;;;;4.70;70.84;98714.41;5103896;29;20051;-69
2021/12/11 07:45:06;;;;;;;28.75;18.40;;;;;;;4.88;70.48;98722.72;5101769;29;20566;-68
2021/12/11 07:47:55;;;;;;;29.05;18.23;;;;;;;4.70;70.46;98735.41;5094301;29;20044;-69
2021/12/11 07:50:46;;;;;;;29.55;18.63;;;;;;;4.61;71.31;98742.19;5094173;29;20051;-71
2021/12/11 07:53:36;;;;;;;30.48;18.05;;;;;;;4.68;70.93;98751.31;5112084;29;20057;-66
2021/12/11 07:56:27;;;;;;;29.73;18.48;;;;;;;4.37;71.21;98746.59;5122805;29;20046;-67
2021/12/11 07:59:17;;;;;;;31.10;19.50;;;;;;;4.26;73.14;98771.00;5108138;29;20117;-66
2021/12/11 08:02:07;;;;;;;29.65;19.20;;;;;;;4.29;71.78;98781.28;5112508;29;20103;-66
2021/12/11 08:04:58;;;;;;;33.33;20.50;;;;;;;4.73;71.04;98798.22;5083558;29;20446;-65
2021/12/11 08:07:48;;;;;;;32.00;20.05;;;;;;;4.23;71.78;98789.56;5086719;29;20055;-69
2021/12/11 08:10:43;;;;;;;30.42;19.33;;;;;;;4.23;72.06;98800.06;5103148;29;20163;-67
2021/12/11 08:13:33;;;;;;;31.70;18.35;;;;;;;4.23;72.15;98808.78;5096116;28;20062;-69
2021/12/11 08:16:31;;;;;;;29.48;17.80;;;;;;;3.27;74.00;98792.66;5103107;28;20176;-67
2021/12/11 08:19:24;;;;;;;33.47;19.90;;;;;;;3.89;72.84;98827.84;5107838;29;20419;-67
2021/12/11 08:22:15;;;;;;;32.70;20.33;;;;;;;4.16;71.48;98825.91;5099579;29;20040;-68
2021/12/11 08:25:06;;;;;;;31.58;20.63;;;;;;;3.84;73.33;98822.06;5101297;29;20051;-67
2021/12/11 08:27:58;;;;;;;33.15;19.80;;;;;;;3.57;73.84;98833.47;5102425;29;20059;-69
2021/12/11 08:30:51;;;;;;;29.92;19.20;;;;;;;3.40;74.14;98841.66;5101699;29;20055;-69
2021/12/11 08:33:42;;;;;;;30.45;19.90;;;;;;;3.39;75.65;98850.47;5102287;29;20146;-69
2021/12/11 08:36:32;;;;;;;34.28;20.35;;;;;;;4.11;72.73;98849.03;5102030;29;20051;-65
2021/12/11 08:39:24;;;;;;;31.85;20.10;;;;;;;4.20;72.55;98860.66;5102916;29;20206;-66
2021/12/11 08:42:19;;;;;;;38.42;21.65;;;;;;;4.66;71.54;98860.88;5102276;29;20054;-68
2021/12/11 08:45:20;;;;;;;34.67;20.67;;;;;;;4.02;71.67;98856.69;5102150;29;20135;-65
2021/12/11 08:48:14;;;;;;;34.13;20.40;;;;;;;4.30;72.40;98873.97;5102236;29;20095;-68
2021/12/11 08:51:16;;;;;;;38.92;22.77;;;;;;;4.28;72.45;98876.72;5101915;29;20070;-70
2021/12/11 08:54:07;;;;;;;35.15;21.17;;;;;;;4.47;71.27;98890.25;5102266;29;20091;-68
2021/12/11 08:57:04;;;;;;;35.50;21.63;;;;;;;4.40;71.71;98891.63;5101641;29;20130;-66
2021/12/11 08:59:57;;;;;;;37.13;21.67;;;;;;;4.64;71.86;98896.91;5101303;29;20059;-67
2021/12/11 09:03:14;;;;;;;39.08;23.73;;;;;;;4.60;71.49;98902.47;5095471;28;20058;-71
2021/12/11 09:06:22;;;;;;;36.15;22.40;;;;;;;3.99;73.70;98904.97;5099558;29;20518;-69
2021/12/11 09:09:23;;;;;;;43.55;24.13;;;;;;;4.48;71.71;98917.31;5096505;29;20217;-68
2021/12/11 09:12:22;;;;;;;42.92;24.15;;;;;;;4.56;71.74;98928.13;5100791;29;20187;-70
2021/12/11 09:15:21;;;;;;;40.60;23.92;;;;;;;4.67;70.74;98932.63;5096566;29;20040;-70
2021/12/11 09:18:28;;;;;;;43.42;23.30;;;;;;;4.68;71.00;98929.88;5100652;29;20055;-72
2021/12/11 09:21:26;;;;;;;41.70;24.27;;;;;;;4.94;71.77;98929.84;5093074;29;20051;-67
2021/12/11 09:24:29;;;;;;;42.30;23.73;;;;;;;4.92;70.57;98936.97;5115067;28;20124;-66
2021/12/11 09:28:07;;;;;;;45.55;25.27;;;;;;;4.63;72.06;98934.63;5105395;29;20099;-68
2021/12/11 09:31:29;;;;;;;43.42;24.92;;;;;;;4.81;70.74;98950.03;5105256;29;20043;-67
2021/12/11 09:34:27;;;;;;;42.88;24.00;;;;;;;4.45;71.94;98946.41;5095159;29;20442;-70
2021/12/11 09:37:17;;;;;;;41.55;23.83;;;;;;;4.20;73.16;98963.00;5104738;29;20047;-66
2021/12/11 09:40:17;;;;;;;40.78;22.95;;;;;;;4.63;72.44;98960.88;5098871;29;20077;-67
2021/12/11 09:43:08;;;;;;;39.33;23.73;;;;;;;5.12;70.14;98962.66;5100022;29;20140;-71
2021/12/11 09:45:59;;;;;;;40.60;22.80;;;;;;;4.28;72.64;98965.97;5101124;29;20051;-68
2021/12/11 09:48:51;;;;;;;37.45;22.65;;;;;;;4.10;73.99;98969.81;5098724;29;20046;-67
2021/12/11 09:51:45;;;;;;;46.38;24.25;;;;;;;5.04;71.51;98980.78;5102997;29;20125;-66
2021/12/11 09:54:36;;;;;;;32.45;21.05;;;;;;;5.47;69.23;98985.56;5112774;28;20536;-67
2021/12/11 09:57:31;;;;;;;33.60;20.77;;;;;;;5.31;69.36;98995.53;5104541;29;20111;-67
2021/12/11 10:00:38;;;;;;;37.92;21.05;;;;;;;5.08;69.76;98978.78;5107734;29;20153;-67
2021/12/11 10:03:33;;;;;;;32.65;19.63;;;;;;;4.49;72.13;98992.50;5116002;29;20113;-67
2021/12/11 10:06:44;;;;;;;32.50;19.65;;;;;;;4.56;73.38;98996.38;5105202;29;20147;-67
2021/12/11 10:09:38;;;;;;;35.28;21.55;;;;;;;5.02;71.39;99008.94;5104457;29;20102;-69
2021/12/11 10:12:34;;;;;;;33.88;20.90;;;;;;;4.74;73.03;99007.44;5093224;29;20130;-68
2021/12/11 10:15:31;;;;;;;34.10;20.55;;;;;;;5.52;69.38;99011.53;5095616;29;20406;-67
2021/12/11 10:18:24;;;;;;;28.88;17.50;;;;;;;4.04;72.44;99018.31;5097063;29;20306;-69
2021/12/11 10:21:20;;;;;;;32.20;20.20;;;;;;;4.60;71.92;99015.41;5097861;29;20463;-69
2021/12/11 10:24:15;;;;;;;31.77;18.65;;;;;;;4.87;70.70;99024.00;5094881;29;20064;-68
2021/12/11 10:27:09;;;;;;;30.27;19.98;;;;;;;5.15;70.32;99029.94;5088045;29;20051;-68
2021/12/11 10:30:00;;;;;;;35.05;21.30;;;;;;;5.41;69.83;99020.19;5089294;29;20087;-68
2021/12/11 10:32:52;;;;;;;27.33;17.65;;;;;;;5.26;68.78;99016.03;5090622;29;20536;-68
2021/12/11 10:35:47;;;;;;;29.35;18.00;;;;;;;4.42;71.81;99020.97;5089467;29;20179;-65
2021/12/11 10:38:44;;;;;;;27.30;17.88;;;;;;;4.27;73.05;99022.00;5092846;28;20113;-67
2021/12/11 10:41:45;;;;;;;28.55;17.90;;;;;;;4.94;70.24;99019.16;5092437;29;20058;-67
2021/12/11 10:44:40;;;;;;;30.48;17.52;;;;;;;5.39;69.14;99038.69;5090704;29;20060;-67
2021/12/11 10:47:35;;;;;;;25.75;16.88;;;;;;;5.10;69.54;99035.53;5090322;29;20578;-69
2021/12/11 10:50:38;;;;;;;24.55;15.27;;;;;;;4.72;71.51;99052.16;5093023;29;20086;-68
2021/12/11 10:53:30;;;;;;;26.27;16.17;;;;;;;4.25;71.91;99044.91;5090974;29;20121;-67
2021/12/11 10:56:22;;;;;;;26.60;15.60;;;;;;;4.75;71.76;99052.91;5115973;29;20050;-67
2021/12/11 10:59:18;;;;;;;22.98;14.40;;;;;;;4.96;69.41;99056.66;5104199;29;20059;-68
2021/12/11 11:02:15;;;;;;;16.75;11.07;;;;;;;4.21;71.29;99057.38;5103895;29;20134;-69
2021/12/11 11:05:11;;;;;;;19.27;11.93;;;;;;;4.52;69.83;99046.59;5104208;29;20414;-67
2021/12/11 11:08:06;;;;;;;19.95;11.85;;;;;;;4.69;70.52;99064.66;5083099;29;20119;-68
2021/12/11 11:11:10;;;;;;;18.90;12.02;;;;;;;4.08;71.44;99048.66;5095949;29;20074;-68
2021/12/11 11:14:01;;;;;;;16.90;11.52;;;;;;;4.48;70.71;99069.59;5102759;29;20054;-69
2021/12/11 11:16:57;;;;;;;19.67;12.05;;;;;;;4.58;69.83;99069.81;5103353;29;20438;-68
2021/12/11 11:19:49;;;;;;;19.02;12.38;;;;;;;3.97;71.16;99072.09;5103697;29;20545;-66
2021/12/11 11:22:42;;;;;;;19.10;11.65;;;;;;;4.60;69.30;99081.06;5105418;28;20552;-66
2021/12/11 11:25:39;;;;;;;26.67;13.53;;;;;;;4.93;69.35;99070.88;5109611;29;20078;-65
2021/12/11 11:28:33;;;;;;;21.92;13.88;;;;;;;5.77;67.56;99079.00;5094207;29;20150;-68
2021/12/11 11:31:27;;;;;;;23.52;13.43;;;;;;;5.51;67.75;99088.75;5099518;29;20083;-67
2021/12/11 11:34:21;;;;;;;19.08;11.52;;;;;;;4.83;68.38;99077.69;5096805;29;20055;-67
2021/12/11 11:37:17;;;;;;;18.27;11.75;;;;;;;5.33;66.91;99098.78;5106011;29;20058;-66
2021/12/11 11:40:12;;;;;;;18.63;11.80;;;;;;;5.37;66.88;99108.16;5084421;29;20101;-67
2021/12/11 11:43:05;;;;;;;18.70;11.73;;;;;;;5.88;66.14;99108.00;5102328;29;20050;-67
2021/12/11 11:45:56;;;;;;;21.20;11.57;;;;;;;5.48;66.05;99110.00;5102644;29;20118;-67
2021/12/11 11:48:49;;;;;;;16.27;10.35;;;;;;;5.29;66.97;99118.34;5102930;29;20198;-67
2021/12/11 11:51:49;;;;;;;18.80;12.55;;;;;;;5.65;66.50;99136.78;5101774;29;20055;-67
2021/12/11 11:54:43;;;;;;;19.95;11.30;;;;;;;5.36;66.55;99122.22;5102400;29;20113;-66
2021/12/11 11:57:37;;;;;;;17.58;11.75;;;;;;;6.04;65.03;99118.28;5100555;29;20051;-67
2021/12/11 12:00:53;;;;;;;17.00;11.55;;;;;;;5.98;65.73;99137.97;5102372;29;20542;-67
2021/12/11 12:03:43;;;;;;;16.73;10.90;;;;;;;6.50;63.54;99149.13;5102307;29;20115;-67
2021/12/11 12:06:36;;;;;;;17.85;10.82;;;;;;;4.78;69.00;99153.38;5101849;29;20055;-67
2021/12/11 12:09:30;;;;;;;18.52;11.43;;;;;;;5.38;65.74;99162.41;5102373;29;20078;-67
2021/12/11 12:12:22;;;;;;;20.67;10.95;;;;;;;5.75;64.51;99163.28;5101199;29;20107;-67
2021/12/11 12:15:19;;;;;;;20.35;11.93;;;;;;;5.89;66.07;99163.16;5101372;29;20074;-66
2021/12/11 12:18:11;;;;;;;16.40;10.65;;;;;;;5.55;64.08;99153.34;5102110;29;20138;-67
2021/12/11 12:21:04;;;;;;;15.32;10.45;;;;;;;4.80;67.06;99172.50;5102323;29;20058;-67
2021/12/11 12:23:54;;;;;;;17.27;11.23;;;;;;;5.69;64.73;99176.03;5102296;29;20154;-67
2021/12/11 12:26:45;;;;;;;19.02;11.93;;;;;;;5.78;64.96;99178.84;5100686;29;20789;-67
2021/12/11 12:29:37;;;;;;;19.35;12.07;;;;;;;6.06;64.04;99176.91;5102142;29;20110;-67
2021/12/11 12:32:31;;;;;;;20.42;12.45;;;;;;;5.98;63.75;99181.88;5101779;29;20086;-67
2021/12/11 12:35:25;;;;;;;18.35;12.63;;;;;;;6.33;63.23;99181.97;5102167;29;20058;-66
2021/12/11 12:38:18;;;;;;;18.92;11.93;;;;;;;6.44;62.62;99187.28;5102045;29;20064;-67
2021/12/11 12:41:24;;;;;;;17.63;11.80;;;;;;;6.13;62.91;99186.06;5101598;29;20070;-66
2021/12/11 12:44:18;;;;;;;18.50;11.52;;;;;;;5.96;63.01;99189.03;5101829;29;20052;-67
2021/12/11 12:47:33;;;;;;;16.98;12.00;;;;;;;5.91;63.36;99202.50;5101823;29;20427;-67
2021/12/11 12:50:33;;;;;;;19.85;11.80;;;;;;;6.18;62.95;99199.72;5102163;29;20054;-67
2021/12/11 12:53:33;;;;;;;20.35;11.77;;;;;;;5.75;63.91;99197.47;5101970;29;20504;-68
2021/12/11 12:56:37;;;;;;;19.23;12.20;;;;;;;5.29;64.47;99179.66;5100587;29;20051;-69
2021/12/11 12:59:40;;;;;;;19.00;11.10;;;;;;;5.58;64.15;99193.41;5102265;29;20171;-68
2021/12/11 13:02:32;;;;;;;19.92;10.52;;;;;;;5.81;62.38;99198.84;5101467;29;20150;-67
2021/12/11 13:05:37;;;;;;;19.88;10.48;;;;;;;5.91;63.11;99217.47;5101921;29;20078;-67
2021/12/11 13:08:41;;;;;;;25.65;11.20;;;;;;;6.04;62.14;99224.41;5102234;29;20516;-68
2021/12/11 13:11:40;;;;;;;17.42;10.60;;;;;;;6.07;62.31;99225.97;5100826;29;20058;-68
2021/12/11 13:14:33;;;;;;;14.10;9.82;;;;;;;5.57;62.96;99240.88;5102321;29;20514;-67
2021/12/11 13:17:30;;;;;;;16.83;10.05;;;;;;;5.36;63.91;99236.16;5101487;29;20102;-68
2021/12/11 13:20:27;;;;;;;16.05;10.43;;;;;;;5.73;62.43;99235.38;5101124;29;20050;-68
2021/12/11 13:23:19;;;;;;;23.17;10.52;;;;;;;5.44;63.03;99251.41;5101147;29;20055;-67
2021/12/11 13:26:11;;;;;;;16.35;10.38;;;;;;;5.96;62.31;99247.81;5101533;29;20044;-67
2021/12/11 13:29:05;;;;;;;16.40;10.77;;;;;;;5.35;62.62;99252.03;5101933;29;20059;-67
2021/12/11 13:32:11;;;;;;;26.60;14.27;;;;;;;5.58;62.72;99261.81;5100122;29;20055;-68
2021/12/11 13:35:09;;;;;;;24.02;13.02;;;;;;;5.59;62.03;99260.84;5105547;29;20431;-68
2021/12/11 13:38:00;;;;;;;27.20;13.15;;;;;;;5.52;62.70;99267.47;5111316;29;20074;-69
2021/12/11 13:40:55;;;;;;;20.55;12.95;;;;;;;5.32;63.39;99257.47;5121814;29;20434;-70
2021/12/11 13:43:46;;;;;;;20.45;11.73;;;;;;;5.79;61.73;99287.56;5121726;28;20058;-69
2021/12/11 13:46:38;;;;;;;21.60;13.07;;;;;;;5.73;62.30;99280.09;5121383;29;20090;-69
2021/12/11 13:49:29;;;;;;;25.02;13.63;;;;;;;5.66;63.39;99295.47;5111972;29;20159;-68
2021/12/11 13:52:21;;;;;;;21.95;12.88;;;;;;;5.37;63.59;99263.28;5103223;28;20059;-70
2021/12/11 13:55:15;;;;;;;22.70;12.93;;;;;;;5.89;62.78;99283.34;5107771;29;20067;-69
2021/12/11 13:58:23;;;;;;;21.63;13.85;;;;;;;6.08;62.94;99315.38;5081598;29;20650;-69